Seahope II — 9HA2233 — position and weather

sailwx.info

Track history (hours):
 
Tides and Currents Weather Stations Pressure Air Temp Water Temp Dewpoint Dewpoint Depression Visibility Wind Speed Wind Dir Waves Ship Positions

Seahope II

Last reported at 2017-Jul-12 03:35 UTC. Time now 2017-Aug-17 21:12 UTC.
Position N 01°12' E 103°33'.
Warning: this ship's position is 36 days out of date.

Length 190 m; draft 13.3 m.

Type: Cargo ship. MMSI: 248185000.

Date/timePositionNaut miles runAvg speedWind from/ knotsBaromVisibWave heightAir tempDewpointWater temp
2017-Jul-12 03:35N 01°12' E 103°33'111.3
2017-Jul-12 03:29N 01°12' E 103°34'510.8
2017-Jul-12 03:00N 01°11' E 103°39'611.3
2017-Jul-12 02:30N 01°09' E 103°44'510.8
2017-Jul-12 02:00N 01°11' E 103°49'9 8.4
2017-Jul-12 00:56N 01°16' E 103°56'2 3.9
2017-Jul-12 00:27N 01°17' E 103°56'0 0.0
2017-Jul-11 21:01N 01°17' E 103°56'0 0.2
2017-Jul-11 20:58N 01°17' E 103°56'0 0.0
2017-Jul-11 20:19N 01°17' E 103°56'0 0.0
2017-Jul-11 19:55N 01°17' E 103°56'0 0.0
2017-Jul-11 14:10N 01°17' E 103°56'0 0.1
2017-Jul-11 13:54N 01°17' E 103°56'1 3.0
2017-Jul-11 13:30N 01°16' E 103°55'3 6.5
2017-Jul-11 13:00N 01°14' E 103°53'1 3.0
2017-Jul-11 12:30N 01°14' E 103°54'3 5.2
2017-Jul-11 11:53N 01°15' E 103°57'  
Track history (hours):
 
Tides and Currents Weather Stations Pressure Air Temp Water Temp Dewpoint Dewpoint Depression Visibility Wind Speed Wind Dir Waves Ship Positions

Seahope II

Last reported at 2017-Jul-12 03:35 UTC. Time now 2017-Aug-17 21:12 UTC.
Position N 01°12' E 103°33'.
Warning: this ship's position is 36 days out of date.

Length 190 m; draft 13.3 m.

Type: Cargo ship. MMSI: 248185000.

Date/timePositionNaut miles runAvg speedWind from/ knotsBaromVisibWave heightAir tempDewpointWater temp
2017-Jul-12 03:35N 01°12' E 103°33'111.3
2017-Jul-12 03:29N 01°12' E 103°34'510.8
2017-Jul-12 03:00N 01°11' E 103°39'611.3
2017-Jul-12 02:30N 01°09' E 103°44'510.8
2017-Jul-12 02:00N 01°11' E 103°49'9 8.4
2017-Jul-12 00:56N 01°16' E 103°56'2 3.9
2017-Jul-12 00:27N 01°17' E 103°56'0 0.0
2017-Jul-11 21:01N 01°17' E 103°56'0 0.2
2017-Jul-11 20:58N 01°17' E 103°56'0 0.0
2017-Jul-11 20:19N 01°17' E 103°56'0 0.0
2017-Jul-11 19:55N 01°17' E 103°56'0 0.0
2017-Jul-11 14:10N 01°17' E 103°56'0 0.1
2017-Jul-11 13:54N 01°17' E 103°56'1 3.0
2017-Jul-11 13:30N 01°16' E 103°55'3 6.5
2017-Jul-11 13:00N 01°14' E 103°53'1 3.0
2017-Jul-11 12:30N 01°14' E 103°54'3 5.2
2017-Jul-11 11:53N 01°15' E 103°57'  

Dump ship's entire track history